Aviation Digital Data Service (ADDS)

Output produced by METARs form (0755 UTC 23 October 2014)
found at http://www.aviationweather.gov/adds/metars/
 
KATL 230749Z 2308/2412 33006KT P6SM SKC 
     FM231700 32007KT P6SM SKC 
     FM240100 32003KT P6SM SCT250